sensor_id;sensor_type;location;lat;lon;timestamp;P1;durP1;ratioP1;P2;durP2;ratioP2
5827;SDS011;42583;50.240;8.444;2023-04-25T00:06:23;15.05;;;7.47;;
5827;SDS011;42583;50.240;8.444;2023-04-25T00:21:26;11.32;;;6.43;;
5827;SDS011;42583;50.240;8.444;2023-04-25T00:36:28;17.38;;;7.18;;
5827;SDS011;42583;50.240;8.444;2023-04-25T00:51:28;10.32;;;5.93;;
5827;SDS011;42583;50.240;8.444;2023-04-25T01:06:30;13.73;;;6.25;;
5827;SDS011;42583;50.240;8.444;2023-04-25T01:21:31;19.13;;;7.53;;
5827;SDS011;42583;50.240;8.444;2023-04-25T01:36:38;15.85;;;7.85;;
5827;SDS011;42583;50.240;8.444;2023-04-25T01:51:39;21.75;;;9.05;;
5827;SDS011;42583;50.240;8.444;2023-04-25T02:06:40;18.52;;;8.68;;
5827;SDS011;42583;50.240;8.444;2023-04-25T02:21:41;17.13;;;7.70;;
5827;SDS011;42583;50.240;8.444;2023-04-25T02:36:41;16.80;;;7.97;;
5827;SDS011;42583;50.240;8.444;2023-04-25T02:51:42;17.33;;;7.72;;
5827;SDS011;42583;50.240;8.444;2023-04-25T03:06:45;13.32;;;6.60;;
5827;SDS011;42583;50.240;8.444;2023-04-25T03:21:46;19.17;;;7.55;;
5827;SDS011;42583;50.240;8.444;2023-04-25T03:36:47;18.58;;;7.10;;
5827;SDS011;42583;50.240;8.444;2023-04-25T03:51:53;18.85;;;7.13;;
5827;SDS011;42583;50.240;8.444;2023-04-25T04:06:54;16.67;;;6.82;;
5827;SDS011;42583;50.240;8.444;2023-04-25T04:21:55;17.13;;;6.80;;
5827;SDS011;42583;50.240;8.444;2023-04-25T04:36:55;14.40;;;6.30;;
5827;SDS011;42583;50.240;8.444;2023-04-25T04:52:00;17.43;;;5.23;;
5827;SDS011;42583;50.240;8.444;2023-04-25T05:07:00;14.07;;;5.80;;
5827;SDS011;42583;50.240;8.444;2023-04-25T05:22:02;12.90;;;4.45;;
5827;SDS011;42583;50.240;8.444;2023-04-25T05:37:02;12.25;;;5.72;;
5827;SDS011;42583;50.240;8.444;2023-04-25T05:52:03;15.02;;;4.65;;
5827;SDS011;42583;50.240;8.444;2023-04-25T06:07:04;11.32;;;4.30;;
5827;SDS011;42583;50.240;8.444;2023-04-25T06:22:04;12.00;;;4.10;;
5827;SDS011;42583;50.240;8.444;2023-04-25T06:37:07;11.85;;;4.07;;
5827;SDS011;42583;50.240;8.444;2023-04-25T06:52:07;10.85;;;4.30;;
5827;SDS011;42583;50.240;8.444;2023-04-25T07:07:08;9.65;;;4.20;;
5827;SDS011;42583;50.240;8.444;2023-04-25T07:22:09;6.57;;;3.38;;
5827;SDS011;42583;50.240;8.444;2023-04-25T07:37:09;9.43;;;3.53;;
5827;SDS011;42583;50.240;8.444;2023-04-25T07:52:10;6.72;;;3.67;;
5827;SDS011;42583;50.240;8.444;2023-04-25T08:07:11;11.70;;;4.00;;
5827;SDS011;42583;50.240;8.444;2023-04-25T08:22:11;9.10;;;4.07;;
5827;SDS011;42583;50.240;8.444;2023-04-25T08:37:12;8.68;;;3.50;;
5827;SDS011;42583;50.240;8.444;2023-04-25T08:52:13;12.63;;;4.10;;
5827;SDS011;42583;50.240;8.444;2023-04-25T09:07:15;6.20;;;3.70;;
5827;SDS011;42583;50.240;8.444;2023-04-25T09:22:21;11.53;;;3.93;;
5827;SDS011;42583;50.240;8.444;2023-04-25T09:37:31;10.30;;;3.85;;
5827;SDS011;42583;50.240;8.444;2023-04-25T09:52:32;10.80;;;3.40;;
5827;SDS011;42583;50.240;8.444;2023-04-25T10:07:35;8.80;;;3.25;;
5827;SDS011;42583;50.240;8.444;2023-04-25T10:22:39;8.02;;;3.40;;
5827;SDS011;42583;50.240;8.444;2023-04-25T10:53:13;7.97;;;2.50;;
5827;SDS011;42583;50.240;8.444;2023-04-25T11:08:15;12.88;;;3.00;;
5827;SDS011;42583;50.240;8.444;2023-04-25T11:23:30;10.73;;;2.23;;
5827;SDS011;42583;50.240;8.444;2023-04-25T11:38:31;10.05;;;2.45;;
5827;SDS011;42583;50.240;8.444;2023-04-25T11:53:31;8.32;;;2.50;;
5827;SDS011;42583;50.240;8.444;2023-04-25T12:08:32;7.90;;;2.45;;
5827;SDS011;42583;50.240;8.444;2023-04-25T12:23:37;6.15;;;2.65;;
5827;SDS011;42583;50.240;8.444;2023-04-25T12:38:40;9.52;;;2.60;;
5827;SDS011;42583;50.240;8.444;2023-04-25T12:53:41;6.80;;;2.38;;
5827;SDS011;42583;50.240;8.444;2023-04-25T13:08:42;7.38;;;3.03;;
5827;SDS011;42583;50.240;8.444;2023-04-25T13:23:43;7.00;;;2.10;;
5827;SDS011;42583;50.240;8.444;2023-04-25T13:38:47;6.07;;;1.80;;
5827;SDS011;42583;50.240;8.444;2023-04-25T13:53:56;9.77;;;1.83;;
5827;SDS011;42583;50.240;8.444;2023-04-25T14:08:59;6.30;;;1.75;;
5827;SDS011;42583;50.240;8.444;2023-04-25T14:24:01;8.82;;;2.35;;
5827;SDS011;42583;50.240;8.444;2023-04-25T14:39:01;5.15;;;2.08;;
5827;SDS011;42583;50.240;8.444;2023-04-25T14:54:03;5.40;;;1.88;;
5827;SDS011;42583;50.240;8.444;2023-04-25T15:09:03;12.80;;;2.00;;
5827;SDS011;42583;50.240;8.444;2023-04-25T15:24:04;6.05;;;2.15;;
5827;SDS011;42583;50.240;8.444;2023-04-25T15:39:05;6.85;;;1.90;;
5827;SDS011;42583;50.240;8.444;2023-04-25T15:54:05;6.45;;;2.00;;
5827;SDS011;42583;50.240;8.444;2023-04-25T16:09:06;6.32;;;1.80;;
5827;SDS011;42583;50.240;8.444;2023-04-25T16:24:09;10.85;;;2.00;;
5827;SDS011;42583;50.240;8.444;2023-04-25T16:39:10;5.30;;;1.90;;
5827;SDS011;42583;50.240;8.444;2023-04-25T16:54:11;5.63;;;2.00;;
5827;SDS011;42583;50.240;8.444;2023-04-25T17:09:11;7.65;;;1.60;;
5827;SDS011;42583;50.240;8.444;2023-04-25T17:24:12;9.02;;;1.90;;
5827;SDS011;42583;50.240;8.444;2023-04-25T17:39:16;8.07;;;1.70;;
5827;SDS011;42583;50.240;8.444;2023-04-25T17:54:16;5.15;;;1.80;;
5827;SDS011;42583;50.240;8.444;2023-04-25T18:09:17;6.92;;;2.02;;
5827;SDS011;42583;50.240;8.444;2023-04-25T18:24:22;5.63;;;1.90;;
5827;SDS011;42583;50.240;8.444;2023-04-25T18:39:25;3.83;;;1.60;;
5827;SDS011;42583;50.240;8.444;2023-04-25T18:54:26;11.40;;;2.60;;
5827;SDS011;42583;50.240;8.444;2023-04-25T19:09:33;5.85;;;1.70;;
5827;SDS011;42583;50.240;8.444;2023-04-25T19:24:34;5.43;;;1.58;;
5827;SDS011;42583;50.240;8.444;2023-04-25T19:39:34;4.53;;;1.45;;
5827;SDS011;42583;50.240;8.444;2023-04-25T19:54:35;4.38;;;1.50;;
5827;SDS011;42583;50.240;8.444;2023-04-25T20:09:36;5.53;;;1.60;;
5827;SDS011;42583;50.240;8.444;2023-04-25T20:24:38;5.75;;;1.83;;
5827;SDS011;42583;50.240;8.444;2023-04-25T20:39:39;2.90;;;1.63;;
5827;SDS011;42583;50.240;8.444;2023-04-25T20:54:39;5.78;;;2.10;;
5827;SDS011;42583;50.240;8.444;2023-04-25T21:09:40;11.02;;;1.98;;
5827;SDS011;42583;50.240;8.444;2023-04-25T21:24:44;4.57;;;2.08;;
5827;SDS011;42583;50.240;8.444;2023-04-25T21:39:46;5.18;;;2.00;;
5827;SDS011;42583;50.240;8.444;2023-04-25T21:54:47;7.63;;;2.20;;
5827;SDS011;42583;50.240;8.444;2023-04-25T22:09:47;8.90;;;2.22;;
5827;SDS011;42583;50.240;8.444;2023-04-25T22:24:48;6.93;;;2.17;;
5827;SDS011;42583;50.240;8.444;2023-04-25T22:39:48;4.90;;;1.90;;
5827;SDS011;42583;50.240;8.444;2023-04-25T22:54:49;4.18;;;2.22;;
5827;SDS011;42583;50.240;8.444;2023-04-25T23:09:51;7.44;;;2.48;;
5827;SDS011;42583;50.240;8.444;2023-04-25T23:24:52;8.50;;;2.25;;
5827;SDS011;42583;50.240;8.444;2023-04-25T23:39:52;7.68;;;2.50;;
5827;SDS011;42583;50.240;8.444;2023-04-25T23:54:56;5.97;;;2.05;;
